KFWS

Fort Worth Spinks Airport

Fort Worth, Texas, USA
METAR KFWS 221352Z 00000KT 10SM CLR 11/09 A3023
Observed Flight Rules
Oct-22 @ 13:52 UTC (34 minutes ago) Visual Flight Rules
Visibility Clouds
10 miles
  • Clear skies
Temperatures Readings
Current 11°C / 52°F
Dewpoint 9°C / 48°F
Humidity 88%
Altimeter 30.23" Hg
Pressure 1024 hPa
Elevation 208
METAR KFWS 221352Z 00000KT 10SM CLR 11/09 A3023
Observed Flight Rules
Oct-22 @ 13:52 UTC
(34 minutes ago)
VFR
Clouds
  • Clear skies
Temperature Dewpoint
11°C / 52°F 9°C / 48°F
Humidity Altimeter Pressure
88% 30.23" Hg 1024 hPa